sensor_id;sensor_type;location;lat;lon;timestamp;temperature;humidity
78289;DHT22;67539;48.752;12.922;2023-12-28T00:00:35;3.10;99.90
78289;DHT22;67539;48.752;12.922;2023-12-28T00:03:05;3.00;99.90
78289;DHT22;67539;48.752;12.922;2023-12-28T00:05:34;3.00;99.90
78289;DHT22;67539;48.752;12.922;2023-12-28T00:08:02;2.90;99.90
78289;DHT22;67539;48.752;12.922;2023-12-28T00:10:30;2.80;99.90
78289;DHT22;67539;48.752;12.922;2023-12-28T00:12:58;2.70;99.90
78289;DHT22;67539;48.752;12.922;2023-12-28T00:15:26;2.70;99.90
78289;DHT22;67539;48.752;12.922;2023-12-28T00:17:54;2.60;99.90
78289;DHT22;67539;48.752;12.922;2023-12-28T00:20:25;2.60;99.90
78289;DHT22;67539;48.752;12.922;2023-12-28T00:22:53;2.50;99.90
78289;DHT22;67539;48.752;12.922;2023-12-28T00:25:21;2.50;99.90
78289;DHT22;67539;48.752;12.922;2023-12-28T00:27:49;2.40;99.90
78289;DHT22;67539;48.752;12.922;2023-12-28T00:30:17;2.40;99.90
78289;DHT22;67539;48.752;12.922;2023-12-28T00:32:45;2.40;99.90
78289;DHT22;67539;48.752;12.922;2023-12-28T00:35:14;2.40;99.90
78289;DHT22;67539;48.752;12.922;2023-12-28T00:37:43;2.30;99.90
78289;DHT22;67539;48.752;12.922;2023-12-28T00:40:12;2.30;99.90
78289;DHT22;67539;48.752;12.922;2023-12-28T00:42:40;2.30;99.90
78289;DHT22;67539;48.752;12.922;2023-12-28T00:45:09;2.20;99.90
78289;DHT22;67539;48.752;12.922;2023-12-28T00:47:37;2.20;99.90
78289;DHT22;67539;48.752;12.922;2023-12-28T00:50:06;2.10;99.90
78289;DHT22;67539;48.752;12.922;2023-12-28T00:52:34;2.10;99.90
78289;DHT22;67539;48.752;12.922;2023-12-28T00:55:05;2.10;99.90
78289;DHT22;67539;48.752;12.922;2023-12-28T00:57:35;2.00;99.90
78289;DHT22;67539;48.752;12.922;2023-12-28T01:00:04;2.00;99.90
78289;DHT22;67539;48.752;12.922;2023-12-28T01:02:32;2.00;99.90
78289;DHT22;67539;48.752;12.922;2023-12-28T01:05:00;1.90;99.90
78289;DHT22;67539;48.752;12.922;2023-12-28T01:07:30;1.90;99.90
78289;DHT22;67539;48.752;12.922;2023-12-28T01:09:58;1.90;99.90
78289;DHT22;67539;48.752;12.922;2023-12-28T01:12:27;1.80;99.90
78289;DHT22;67539;48.752;12.922;2023-12-28T01:14:55;1.80;99.90
78289;DHT22;67539;48.752;12.922;2023-12-28T01:17:23;1.80;99.90
78289;DHT22;67539;48.752;12.922;2023-12-28T01:19:52;1.80;99.90
78289;DHT22;67539;48.752;12.922;2023-12-28T01:22:20;1.80;99.90
78289;DHT22;67539;48.752;12.922;2023-12-28T01:24:48;1.80;99.90
78289;DHT22;67539;48.752;12.922;2023-12-28T01:27:18;1.70;99.90
78289;DHT22;67539;48.752;12.922;2023-12-28T01:29:47;1.70;99.90
78289;DHT22;67539;48.752;12.922;2023-12-28T01:32:15;1.70;99.90
78289;DHT22;67539;48.752;12.922;2023-12-28T01:34:43;1.70;99.90
78289;DHT22;67539;48.752;12.922;2023-12-28T01:37:12;1.60;99.90
78289;DHT22;67539;48.752;12.922;2023-12-28T01:39:40;1.60;99.90
78289;DHT22;67539;48.752;12.922;2023-12-28T01:42:08;1.60;99.90
78289;DHT22;67539;48.752;12.922;2023-12-28T01:44:37;1.50;99.90
78289;DHT22;67539;48.752;12.922;2023-12-28T01:47:07;1.60;99.90
78289;DHT22;67539;48.752;12.922;2023-12-28T01:49:36;1.60;99.90
78289;DHT22;67539;48.752;12.922;2023-12-28T01:52:06;1.50;99.90
78289;DHT22;67539;48.752;12.922;2023-12-28T01:54:35;1.50;99.90
78289;DHT22;67539;48.752;12.922;2023-12-28T01:57:04;1.50;99.90
78289;DHT22;67539;48.752;12.922;2023-12-28T01:59:32;1.50;99.90
78289;DHT22;67539;48.752;12.922;2023-12-28T02:02:01;1.50;99.90
78289;DHT22;67539;48.752;12.922;2023-12-28T02:04:31;1.50;99.90
78289;DHT22;67539;48.752;12.922;2023-12-28T02:07:00;1.50;99.90
78289;DHT22;67539;48.752;12.922;2023-12-28T02:09:31;1.40;99.90
78289;DHT22;67539;48.752;12.922;2023-12-28T02:12:00;1.30;99.90
78289;DHT22;67539;48.752;12.922;2023-12-28T02:14:28;1.30;99.90
78289;DHT22;67539;48.752;12.922;2023-12-28T02:17:12;1.30;99.90
78289;DHT22;67539;48.752;12.922;2023-12-28T02:19:47;1.20;99.90
78289;DHT22;67539;48.752;12.922;2023-12-28T02:22:17;1.30;99.90
78289;DHT22;67539;48.752;12.922;2023-12-28T02:25:08;1.30;99.90
78289;DHT22;67539;48.752;12.922;2023-12-28T02:27:41;1.20;99.90
78289;DHT22;67539;48.752;12.922;2023-12-28T02:30:10;1.20;99.90
78289;DHT22;67539;48.752;12.922;2023-12-28T02:32:55;1.20;99.90
78289;DHT22;67539;48.752;12.922;2023-12-28T02:35:31;1.10;99.90
78289;DHT22;67539;48.752;12.922;2023-12-28T02:38:03;1.10;99.90
78289;DHT22;67539;48.752;12.922;2023-12-28T02:40:36;1.10;99.90
78289;DHT22;67539;48.752;12.922;2023-12-28T02:43:05;1.10;99.90
78289;DHT22;67539;48.752;12.922;2023-12-28T02:45:37;1.10;99.90
78289;DHT22;67539;48.752;12.922;2023-12-28T02:48:07;1.10;99.90
78289;DHT22;67539;48.752;12.922;2023-12-28T02:50:36;1.00;99.90
78289;DHT22;67539;48.752;12.922;2023-12-28T02:53:05;1.10;99.90
78289;DHT22;67539;48.752;12.922;2023-12-28T02:55:35;1.00;99.90
78289;DHT22;67539;48.752;12.922;2023-12-28T02:58:04;1.10;99.90
78289;DHT22;67539;48.752;12.922;2023-12-28T03:00:32;1.10;99.90
78289;DHT22;67539;48.752;12.922;2023-12-28T03:03:00;1.10;99.90
78289;DHT22;67539;48.752;12.922;2023-12-28T03:05:29;1.10;99.90
78289;DHT22;67539;48.752;12.922;2023-12-28T03:07:57;1.10;99.90
78289;DHT22;67539;48.752;12.922;2023-12-28T03:10:25;1.10;99.90
78289;DHT22;67539;48.752;12.922;2023-12-28T03:12:55;1.10;99.90
78289;DHT22;67539;48.752;12.922;2023-12-28T03:15:25;1.10;99.90
78289;DHT22;67539;48.752;12.922;2023-12-28T03:17:53;1.10;99.90
78289;DHT22;67539;48.752;12.922;2023-12-28T03:20:23;1.20;99.90
78289;DHT22;67539;48.752;12.922;2023-12-28T03:22:52;1.20;99.90
78289;DHT22;67539;48.752;12.922;2023-12-28T03:25:20;1.10;99.90
78289;DHT22;67539;48.752;12.922;2023-12-28T03:27:48;1.10;99.90
78289;DHT22;67539;48.752;12.922;2023-12-28T03:30:19;1.10;99.90
78289;DHT22;67539;48.752;12.922;2023-12-28T03:32:47;1.10;99.90
78289;DHT22;67539;48.752;12.922;2023-12-28T03:35:17;1.10;99.90
78289;DHT22;67539;48.752;12.922;2023-12-28T03:37:45;1.10;99.90
78289;DHT22;67539;48.752;12.922;2023-12-28T03:40:13;1.10;99.90
78289;DHT22;67539;48.752;12.922;2023-12-28T03:42:46;1.10;99.90
78289;DHT22;67539;48.752;12.922;2023-12-28T03:45:14;1.00;99.90
78289;DHT22;67539;48.752;12.922;2023-12-28T03:47:44;1.10;99.90
78289;DHT22;67539;48.752;12.922;2023-12-28T03:50:12;1.10;99.90
78289;DHT22;67539;48.752;12.922;2023-12-28T03:52:40;1.10;99.90
78289;DHT22;67539;48.752;12.922;2023-12-28T03:55:09;1.00;99.90
78289;DHT22;67539;48.752;12.922;2023-12-28T03:57:37;1.00;99.90
78289;DHT22;67539;48.752;12.922;2023-12-28T04:00:09;1.00;99.90
78289;DHT22;67539;48.752;12.922;2023-12-28T04:02:40;1.00;99.90
78289;DHT22;67539;48.752;12.922;2023-12-28T04:05:10;1.00;99.90
78289;DHT22;67539;48.752;12.922;2023-12-28T04:07:41;1.00;99.90
78289;DHT22;67539;48.752;12.922;2023-12-28T04:10:11;0.90;99.90
78289;DHT22;67539;48.752;12.922;2023-12-28T04:12:39;0.90;99.90
78289;DHT22;67539;48.752;12.922;2023-12-28T04:15:08;0.90;99.90
78289;DHT22;67539;48.752;12.922;2023-12-28T04:17:39;0.90;99.90
78289;DHT22;67539;48.752;12.922;2023-12-28T04:20:13;0.90;99.90
78289;DHT22;67539;48.752;12.922;2023-12-28T04:22:44;0.90;99.90
78289;DHT22;67539;48.752;12.922;2023-12-28T04:25:16;0.90;99.90
78289;DHT22;67539;48.752;12.922;2023-12-28T04:27:50;0.90;99.90
78289;DHT22;67539;48.752;12.922;2023-12-28T04:30:20;0.80;99.90
78289;DHT22;67539;48.752;12.922;2023-12-28T04:32:57;0.80;99.90
78289;DHT22;67539;48.752;12.922;2023-12-28T04:35:30;0.80;99.90
78289;DHT22;67539;48.752;12.922;2023-12-28T04:38:01;0.80;99.90
78289;DHT22;67539;48.752;12.922;2023-12-28T04:40:30;0.80;99.90
78289;DHT22;67539;48.752;12.922;2023-12-28T04:43:04;0.70;99.90
78289;DHT22;67539;48.752;12.922;2023-12-28T04:45:35;0.80;99.90
78289;DHT22;67539;48.752;12.922;2023-12-28T04:48:11;0.70;99.90
78289;DHT22;67539;48.752;12.922;2023-12-28T05:02:49;0.70;99.90
78289;DHT22;67539;48.752;12.922;2023-12-28T05:05:17;0.70;99.90
78289;DHT22;67539;48.752;12.922;2023-12-28T05:07:47;0.70;99.90
78289;DHT22;67539;48.752;12.922;2023-12-28T05:10:16;0.70;99.90
78289;DHT22;67539;48.752;12.922;2023-12-28T05:12:44;0.70;99.90
78289;DHT22;67539;48.752;12.922;2023-12-28T05:15:12;0.70;99.90
78289;DHT22;67539;48.752;12.922;2023-12-28T05:17:41;0.80;99.90
78289;DHT22;67539;48.752;12.922;2023-12-28T05:20:12;0.80;99.90
78289;DHT22;67539;48.752;12.922;2023-12-28T05:22:40;0.80;99.90
78289;DHT22;67539;48.752;12.922;2023-12-28T05:25:08;0.80;99.90
78289;DHT22;67539;48.752;12.922;2023-12-28T05:27:36;0.80;99.90
78289;DHT22;67539;48.752;12.922;2023-12-28T05:30:06;0.80;99.90
78289;DHT22;67539;48.752;12.922;2023-12-28T05:32:34;0.80;99.90
78289;DHT22;67539;48.752;12.922;2023-12-28T05:35:03;0.80;99.90
78289;DHT22;67539;48.752;12.922;2023-12-28T05:37:33;0.80;99.90
78289;DHT22;67539;48.752;12.922;2023-12-28T05:40:01;0.80;99.90
78289;DHT22;67539;48.752;12.922;2023-12-28T05:42:30;0.80;99.90
78289;DHT22;67539;48.752;12.922;2023-12-28T05:44:58;0.80;99.90
78289;DHT22;67539;48.752;12.922;2023-12-28T05:47:26;0.80;99.90
78289;DHT22;67539;48.752;12.922;2023-12-28T05:49:54;0.80;99.90
78289;DHT22;67539;48.752;12.922;2023-12-28T05:52:22;0.70;99.90
78289;DHT22;67539;48.752;12.922;2023-12-28T05:54:52;0.70;99.90
78289;DHT22;67539;48.752;12.922;2023-12-28T05:57:21;0.70;99.90
78289;DHT22;67539;48.752;12.922;2023-12-28T05:59:49;0.70;99.90
78289;DHT22;67539;48.752;12.922;2023-12-28T06:02:17;0.60;99.90
78289;DHT22;67539;48.752;12.922;2023-12-28T06:04:46;0.70;99.90
78289;DHT22;67539;48.752;12.922;2023-12-28T06:07:14;0.60;99.90
78289;DHT22;67539;48.752;12.922;2023-12-28T06:09:42;0.60;99.90
78289;DHT22;67539;48.752;12.922;2023-12-28T06:12:13;0.60;99.90
78289;DHT22;67539;48.752;12.922;2023-12-28T06:14:41;0.60;99.90
78289;DHT22;67539;48.752;12.922;2023-12-28T06:17:09;0.60;99.90
78289;DHT22;67539;48.752;12.922;2023-12-28T06:19:38;0.60;99.90
78289;DHT22;67539;48.752;12.922;2023-12-28T06:22:06;0.50;99.90
78289;DHT22;67539;48.752;12.922;2023-12-28T06:24:37;0.50;99.90
78289;DHT22;67539;48.752;12.922;2023-12-28T06:27:06;0.50;99.90
78289;DHT22;67539;48.752;12.922;2023-12-28T06:29:35;0.50;99.90
78289;DHT22;67539;48.752;12.922;2023-12-28T06:32:05;0.50;99.90
78289;DHT22;67539;48.752;12.922;2023-12-28T06:34:33;0.50;99.90
78289;DHT22;67539;48.752;12.922;2023-12-28T06:37:02;0.50;99.90
78289;DHT22;67539;48.752;12.922;2023-12-28T06:39:30;0.50;99.90
78289;DHT22;67539;48.752;12.922;2023-12-28T06:41:58;0.50;99.90
78289;DHT22;67539;48.752;12.922;2023-12-28T06:44:26;0.40;99.90
78289;DHT22;67539;48.752;12.922;2023-12-28T06:46:56;0.40;99.90
78289;DHT22;67539;48.752;12.922;2023-12-28T06:49:24;0.40;99.90
78289;DHT22;67539;48.752;12.922;2023-12-28T06:51:53;0.40;99.90
78289;DHT22;67539;48.752;12.922;2023-12-28T06:54:21;0.40;99.90
78289;DHT22;67539;48.752;12.922;2023-12-28T06:56:49;0.40;99.90
78289;DHT22;67539;48.752;12.922;2023-12-28T06:59:18;0.40;99.90
78289;DHT22;67539;48.752;12.922;2023-12-28T07:01:46;0.40;99.90
78289;DHT22;67539;48.752;12.922;2023-12-28T07:04:16;0.40;99.90
78289;DHT22;67539;48.752;12.922;2023-12-28T07:06:45;0.40;99.90
78289;DHT22;67539;48.752;12.922;2023-12-28T07:09:13;0.40;99.90
78289;DHT22;67539;48.752;12.922;2023-12-28T07:11:41;0.40;99.90
78289;DHT22;67539;48.752;12.922;2023-12-28T07:14:09;0.40;99.90
78289;DHT22;67539;48.752;12.922;2023-12-28T07:16:37;0.40;99.90
78289;DHT22;67539;48.752;12.922;2023-12-28T07:19:05;0.40;99.90
78289;DHT22;67539;48.752;12.922;2023-12-28T07:21:35;0.40;99.90
78289;DHT22;67539;48.752;12.922;2023-12-28T07:24:04;0.50;99.90
78289;DHT22;67539;48.752;12.922;2023-12-28T07:26:32;0.50;99.90
78289;DHT22;67539;48.752;12.922;2023-12-28T07:29:00;0.50;99.90
78289;DHT22;67539;48.752;12.922;2023-12-28T07:31:28;0.50;99.90
78289;DHT22;67539;48.752;12.922;2023-12-28T07:33:59;0.60;99.90
78289;DHT22;67539;48.752;12.922;2023-12-28T07:36:27;0.60;99.90
78289;DHT22;67539;48.752;12.922;2023-12-28T07:38:56;0.70;99.90
78289;DHT22;67539;48.752;12.922;2023-12-28T07:41:24;0.70;99.90
78289;DHT22;67539;48.752;12.922;2023-12-28T07:43:53;0.70;99.90
78289;DHT22;67539;48.752;12.922;2023-12-28T07:46:21;0.80;99.90
78289;DHT22;67539;48.752;12.922;2023-12-28T07:48:49;0.80;99.90
78289;DHT22;67539;48.752;12.922;2023-12-28T07:51:18;0.90;99.90
78289;DHT22;67539;48.752;12.922;2023-12-28T07:53:46;0.90;99.90
78289;DHT22;67539;48.752;12.922;2023-12-28T07:56:16;1.00;99.90
78289;DHT22;67539;48.752;12.922;2023-12-28T07:58:44;1.00;99.90
78289;DHT22;67539;48.752;12.922;2023-12-28T08:01:12;1.10;99.90
78289;DHT22;67539;48.752;12.922;2023-12-28T08:03:40;1.10;99.90
78289;DHT22;67539;48.752;12.922;2023-12-28T08:06:08;1.20;99.90
78289;DHT22;67539;48.752;12.922;2023-12-28T08:08:39;1.20;99.90
78289;DHT22;67539;48.752;12.922;2023-12-28T08:11:08;1.30;99.90
78289;DHT22;67539;48.752;12.922;2023-12-28T08:13:37;1.30;99.90
78289;DHT22;67539;48.752;12.922;2023-12-28T08:16:06;1.40;99.90
78289;DHT22;67539;48.752;12.922;2023-12-28T08:18:34;1.50;99.90
78289;DHT22;67539;48.752;12.922;2023-12-28T08:21:03;1.70;99.90
78289;DHT22;67539;48.752;12.922;2023-12-28T08:23:31;1.80;99.90
78289;DHT22;67539;48.752;12.922;2023-12-28T08:25:59;1.90;99.90
78289;DHT22;67539;48.752;12.922;2023-12-28T08:28:27;2.00;99.90
78289;DHT22;67539;48.752;12.922;2023-12-28T08:30:57;2.20;99.90
78289;DHT22;67539;48.752;12.922;2023-12-28T08:33:25;2.30;99.90
78289;DHT22;67539;48.752;12.922;2023-12-28T08:35:54;2.40;99.90
78289;DHT22;67539;48.752;12.922;2023-12-28T08:38:22;2.50;99.90
78289;DHT22;67539;48.752;12.922;2023-12-28T08:40:50;2.60;99.90
78289;DHT22;67539;48.752;12.922;2023-12-28T08:43:18;2.70;99.90
78289;DHT22;67539;48.752;12.922;2023-12-28T08:45:47;2.80;99.90
78289;DHT22;67539;48.752;12.922;2023-12-28T08:48:16;2.90;99.90
78289;DHT22;67539;48.752;12.922;2023-12-28T08:50:44;3.00;99.90
78289;DHT22;67539;48.752;12.922;2023-12-28T08:53:13;3.10;99.90
78289;DHT22;67539;48.752;12.922;2023-12-28T08:55:41;3.20;99.90
78289;DHT22;67539;48.752;12.922;2023-12-28T08:58:09;3.30;99.90
78289;DHT22;67539;48.752;12.922;2023-12-28T09:00:37;3.40;99.90
78289;DHT22;67539;48.752;12.922;2023-12-28T09:03:05;3.50;99.90
78289;DHT22;67539;48.752;12.922;2023-12-28T09:05:36;3.50;99.90
78289;DHT22;67539;48.752;12.922;2023-12-28T09:08:04;3.60;99.90
78289;DHT22;67539;48.752;12.922;2023-12-28T09:10:33;3.80;99.90
78289;DHT22;67539;48.752;12.922;2023-12-28T09:13:03;3.90;99.90
78289;DHT22;67539;48.752;12.922;2023-12-28T09:15:32;4.00;99.90
78289;DHT22;67539;48.752;12.922;2023-12-28T09:18:00;4.00;99.90
78289;DHT22;67539;48.752;12.922;2023-12-28T09:20:28;4.20;99.90
78289;DHT22;67539;48.752;12.922;2023-12-28T09:22:58;4.20;99.90
78289;DHT22;67539;48.752;12.922;2023-12-28T09:25:26;4.30;99.90
78289;DHT22;67539;48.752;12.922;2023-12-28T09:27:54;4.40;99.90
78289;DHT22;67539;48.752;12.922;2023-12-28T09:30:23;4.50;99.90
78289;DHT22;67539;48.752;12.922;2023-12-28T09:32:51;4.60;99.90
78289;DHT22;67539;48.752;12.922;2023-12-28T09:35:20;4.70;99.90
78289;DHT22;67539;48.752;12.922;2023-12-28T09:37:48;4.80;99.90
78289;DHT22;67539;48.752;12.922;2023-12-28T09:40:18;4.90;99.90
78289;DHT22;67539;48.752;12.922;2023-12-28T09:42:52;5.00;99.90
78289;DHT22;67539;48.752;12.922;2023-12-28T09:45:21;5.10;99.90
78289;DHT22;67539;48.752;12.922;2023-12-28T09:47:50;5.20;99.90
78289;DHT22;67539;48.752;12.922;2023-12-28T09:50:19;5.20;99.90
78289;DHT22;67539;48.752;12.922;2023-12-28T09:52:47;5.30;99.90
78289;DHT22;67539;48.752;12.922;2023-12-28T09:55:16;5.40;99.90
78289;DHT22;67539;48.752;12.922;2023-12-28T09:57:46;5.50;99.90
78289;DHT22;67539;48.752;12.922;2023-12-28T10:00:14;5.50;99.90
78289;DHT22;67539;48.752;12.922;2023-12-28T10:02:44;5.60;99.90
78289;DHT22;67539;48.752;12.922;2023-12-28T10:05:14;5.70;99.90
78289;DHT22;67539;48.752;12.922;2023-12-28T10:07:42;5.70;99.90
78289;DHT22;67539;48.752;12.922;2023-12-28T10:10:15;5.80;99.90
78289;DHT22;67539;48.752;12.922;2023-12-28T10:12:43;5.90;99.90
78289;DHT22;67539;48.752;12.922;2023-12-28T10:15:13;6.00;99.90
78289;DHT22;67539;48.752;12.922;2023-12-28T10:17:41;6.10;99.90
78289;DHT22;67539;48.752;12.922;2023-12-28T10:20:09;6.20;99.90
78289;DHT22;67539;48.752;12.922;2023-12-28T10:22:38;6.30;99.90
78289;DHT22;67539;48.752;12.922;2023-12-28T10:25:07;6.40;99.90
78289;DHT22;67539;48.752;12.922;2023-12-28T10:27:38;6.50;99.90
78289;DHT22;67539;48.752;12.922;2023-12-28T10:30:08;6.50;99.90
78289;DHT22;67539;48.752;12.922;2023-12-28T10:32:41;6.60;99.90
78289;DHT22;67539;48.752;12.922;2023-12-28T10:35:10;6.70;99.90
78289;DHT22;67539;48.752;12.922;2023-12-28T10:37:40;6.70;99.90
78289;DHT22;67539;48.752;12.922;2023-12-28T10:40:13;6.70;99.90
78289;DHT22;67539;48.752;12.922;2023-12-28T10:42:49;6.70;99.90
78289;DHT22;67539;48.752;12.922;2023-12-28T10:45:19;6.80;99.90
78289;DHT22;67539;48.752;12.922;2023-12-28T10:47:56;6.70;99.90
78289;DHT22;67539;48.752;12.922;2023-12-28T10:50:30;6.80;99.90
78289;DHT22;67539;48.752;12.922;2023-12-28T10:53:07;6.80;99.90
78289;DHT22;67539;48.752;12.922;2023-12-28T10:55:43;6.80;99.90
78289;DHT22;67539;48.752;12.922;2023-12-28T10:58:18;6.80;99.90
78289;DHT22;67539;48.752;12.922;2023-12-28T11:00:55;6.90;99.90
78289;DHT22;67539;48.752;12.922;2023-12-28T11:03:30;6.90;99.90
78289;DHT22;67539;48.752;12.922;2023-12-28T11:06:02;6.90;99.90
78289;DHT22;67539;48.752;12.922;2023-12-28T11:08:32;7.00;99.90
78289;DHT22;67539;48.752;12.922;2023-12-28T11:11:02;7.10;99.90
78289;DHT22;67539;48.752;12.922;2023-12-28T11:13:32;7.10;99.90
78289;DHT22;67539;48.752;12.922;2023-12-28T11:16:01;7.10;99.90
78289;DHT22;67539;48.752;12.922;2023-12-28T11:18:31;7.20;99.90
78289;DHT22;67539;48.752;12.922;2023-12-28T11:20:59;7.20;99.90
78289;DHT22;67539;48.752;12.922;2023-12-28T11:23:28;7.20;99.90
78289;DHT22;67539;48.752;12.922;2023-12-28T11:25:56;7.30;99.90
78289;DHT22;67539;48.752;12.922;2023-12-28T11:28:24;7.30;99.90
78289;DHT22;67539;48.752;12.922;2023-12-28T11:30:53;7.30;99.90
78289;DHT22;67539;48.752;12.922;2023-12-28T11:33:22;7.40;99.90
78289;DHT22;67539;48.752;12.922;2023-12-28T11:35:52;7.40;99.90
78289;DHT22;67539;48.752;12.922;2023-12-28T11:38:22;7.40;99.90
78289;DHT22;67539;48.752;12.922;2023-12-28T11:40:51;7.50;99.90
78289;DHT22;67539;48.752;12.922;2023-12-28T11:43:22;7.50;99.90
78289;DHT22;67539;48.752;12.922;2023-12-28T11:45:54;7.50;99.90
78289;DHT22;67539;48.752;12.922;2023-12-28T11:48:23;7.60;99.90
78289;DHT22;67539;48.752;12.922;2023-12-28T11:50:57;7.60;99.90
78289;DHT22;67539;48.752;12.922;2023-12-28T11:53:25;7.60;99.90
78289;DHT22;67539;48.752;12.922;2023-12-28T11:55:59;7.70;99.90
78289;DHT22;67539;48.752;12.922;2023-12-28T11:58:29;7.80;99.90
78289;DHT22;67539;48.752;12.922;2023-12-28T12:00:57;7.80;99.90
78289;DHT22;67539;48.752;12.922;2023-12-28T12:03:25;7.80;99.90
78289;DHT22;67539;48.752;12.922;2023-12-28T12:05:55;7.80;99.90
78289;DHT22;67539;48.752;12.922;2023-12-28T12:08:24;7.80;99.90
78289;DHT22;67539;48.752;12.922;2023-12-28T12:11:00;7.90;99.90
78289;DHT22;67539;48.752;12.922;2023-12-28T12:13:29;7.80;99.90
78289;DHT22;67539;48.752;12.922;2023-12-28T12:15:57;7.80;99.90
78289;DHT22;67539;48.752;12.922;2023-12-28T12:18:26;7.80;99.90
78289;DHT22;67539;48.752;12.922;2023-12-28T12:20:56;7.90;99.90
78289;DHT22;67539;48.752;12.922;2023-12-28T12:23:24;7.80;99.90
78289;DHT22;67539;48.752;12.922;2023-12-28T12:25:53;7.90;99.90
78289;DHT22;67539;48.752;12.922;2023-12-28T12:28:21;7.80;99.90
78289;DHT22;67539;48.752;12.922;2023-12-28T12:30:50;7.90;99.90
78289;DHT22;67539;48.752;12.922;2023-12-28T12:33:20;7.90;99.90
78289;DHT22;67539;48.752;12.922;2023-12-28T12:35:49;7.90;99.90
78289;DHT22;67539;48.752;12.922;2023-12-28T12:38:19;7.90;99.90
78289;DHT22;67539;48.752;12.922;2023-12-28T12:40:47;7.90;99.90
78289;DHT22;67539;48.752;12.922;2023-12-28T12:43:18;8.00;99.90
78289;DHT22;67539;48.752;12.922;2023-12-28T12:45:47;8.00;99.90
78289;DHT22;67539;48.752;12.922;2023-12-28T12:48:15;8.00;99.90
78289;DHT22;67539;48.752;12.922;2023-12-28T12:50:44;8.00;99.90
78289;DHT22;67539;48.752;12.922;2023-12-28T12:53:13;8.10;99.90
78289;DHT22;67539;48.752;12.922;2023-12-28T12:55:42;8.10;99.90
78289;DHT22;67539;48.752;12.922;2023-12-28T12:58:12;8.10;99.90
78289;DHT22;67539;48.752;12.922;2023-12-28T13:00:45;8.20;99.90
78289;DHT22;67539;48.752;12.922;2023-12-28T13:03:13;8.20;99.90
78289;DHT22;67539;48.752;12.922;2023-12-28T13:05:42;8.10;99.90
78289;DHT22;67539;48.752;12.922;2023-12-28T13:08:11;8.10;99.90
78289;DHT22;67539;48.752;12.922;2023-12-28T13:10:39;8.10;99.90
78289;DHT22;67539;48.752;12.922;2023-12-28T13:13:09;8.20;99.90
78289;DHT22;67539;48.752;12.922;2023-12-28T13:15:37;8.10;99.90
78289;DHT22;67539;48.752;12.922;2023-12-28T13:18:06;8.10;99.90
78289;DHT22;67539;48.752;12.922;2023-12-28T13:20:34;8.20;99.90
78289;DHT22;67539;48.752;12.922;2023-12-28T13:23:03;8.10;99.90
78289;DHT22;67539;48.752;12.922;2023-12-28T13:25:33;8.10;99.90
78289;DHT22;67539;48.752;12.922;2023-12-28T13:28:02;8.10;99.90
78289;DHT22;67539;48.752;12.922;2023-12-28T13:30:31;8.20;99.90
78289;DHT22;67539;48.752;12.922;2023-12-28T13:33:00;8.20;99.90
78289;DHT22;67539;48.752;12.922;2023-12-28T13:35:29;8.20;99.90
78289;DHT22;67539;48.752;12.922;2023-12-28T13:37:57;8.20;99.90
78289;DHT22;67539;48.752;12.922;2023-12-28T13:40:25;8.20;99.90
78289;DHT22;67539;48.752;12.922;2023-12-28T13:42:53;8.20;99.90
78289;DHT22;67539;48.752;12.922;2023-12-28T13:45:22;8.20;99.90
78289;DHT22;67539;48.752;12.922;2023-12-28T13:47:51;8.20;99.90
78289;DHT22;67539;48.752;12.922;2023-12-28T13:50:20;8.20;99.90
78289;DHT22;67539;48.752;12.922;2023-12-28T13:52:48;8.20;99.90
78289;DHT22;67539;48.752;12.922;2023-12-28T13:55:16;8.20;99.90
78289;DHT22;67539;48.752;12.922;2023-12-28T13:57:44;8.20;99.90
78289;DHT22;67539;48.752;12.922;2023-12-28T14:00:13;8.20;99.90
78289;DHT22;67539;48.752;12.922;2023-12-28T14:02:42;8.10;99.90
78289;DHT22;67539;48.752;12.922;2023-12-28T14:05:11;8.10;99.90
78289;DHT22;67539;48.752;12.922;2023-12-28T14:07:40;8.10;99.90
78289;DHT22;67539;48.752;12.922;2023-12-28T14:10:08;8.20;99.90
78289;DHT22;67539;48.752;12.922;2023-12-28T14:12:37;8.20;99.90
78289;DHT22;67539;48.752;12.922;2023-12-28T14:15:06;8.20;99.90
78289;DHT22;67539;48.752;12.922;2023-12-28T14:17:34;8.20;99.90
78289;DHT22;67539;48.752;12.922;2023-12-28T14:20:03;8.20;99.90
78289;DHT22;67539;48.752;12.922;2023-12-28T14:22:35;8.20;99.90
78289;DHT22;67539;48.752;12.922;2023-12-28T14:25:05;8.30;99.90
78289;DHT22;67539;48.752;12.922;2023-12-28T14:27:34;8.20;99.90
78289;DHT22;67539;48.752;12.922;2023-12-28T14:30:03;8.20;99.90
78289;DHT22;67539;48.752;12.922;2023-12-28T14:32:33;8.20;99.90
78289;DHT22;67539;48.752;12.922;2023-12-28T14:35:02;8.20;99.90
78289;DHT22;67539;48.752;12.922;2023-12-28T14:37:30;8.10;99.90
78289;DHT22;67539;48.752;12.922;2023-12-28T14:40:00;8.10;99.90
78289;DHT22;67539;48.752;12.922;2023-12-28T14:42:33;8.10;99.90
78289;DHT22;67539;48.752;12.922;2023-12-28T14:45:01;8.10;99.90
78289;DHT22;67539;48.752;12.922;2023-12-28T14:47:30;8.10;99.90
78289;DHT22;67539;48.752;12.922;2023-12-28T14:49:58;8.10;99.90
78289;DHT22;67539;48.752;12.922;2023-12-28T14:52:27;8.10;99.90
78289;DHT22;67539;48.752;12.922;2023-12-28T14:54:55;8.10;99.90
78289;DHT22;67539;48.752;12.922;2023-12-28T14:57:25;8.10;99.90
78289;DHT22;67539;48.752;12.922;2023-12-28T14:59:53;8.10;99.90
78289;DHT22;67539;48.752;12.922;2023-12-28T15:02:21;8.10;99.90
78289;DHT22;67539;48.752;12.922;2023-12-28T15:04:49;8.00;99.90
78289;DHT22;67539;48.752;12.922;2023-12-28T15:07:18;8.00;99.90
78289;DHT22;67539;48.752;12.922;2023-12-28T15:09:46;8.00;99.90
78289;DHT22;67539;48.752;12.922;2023-12-28T15:12:15;8.00;99.90
78289;DHT22;67539;48.752;12.922;2023-12-28T15:14:45;8.00;99.90
78289;DHT22;67539;48.752;12.922;2023-12-28T15:17:15;7.90;99.90
78289;DHT22;67539;48.752;12.922;2023-12-28T15:19:44;7.90;99.90
78289;DHT22;67539;48.752;12.922;2023-12-28T15:22:13;7.90;99.90
78289;DHT22;67539;48.752;12.922;2023-12-28T15:24:41;7.80;99.90
78289;DHT22;67539;48.752;12.922;2023-12-28T15:27:10;7.80;99.90
78289;DHT22;67539;48.752;12.922;2023-12-28T15:29:39;7.80;99.90
78289;DHT22;67539;48.752;12.922;2023-12-28T15:32:08;7.80;99.90
78289;DHT22;67539;48.752;12.922;2023-12-28T15:34:36;7.80;99.90
78289;DHT22;67539;48.752;12.922;2023-12-28T15:37:06;7.70;99.90
78289;DHT22;67539;48.752;12.922;2023-12-28T15:39:35;7.70;99.90
78289;DHT22;67539;48.752;12.922;2023-12-28T15:42:04;7.70;99.90
78289;DHT22;67539;48.752;12.922;2023-12-28T15:44:32;7.70;99.90
78289;DHT22;67539;48.752;12.922;2023-12-28T15:47:00;7.70;99.90
78289;DHT22;67539;48.752;12.922;2023-12-28T15:49:30;7.70;99.90
78289;DHT22;67539;48.752;12.922;2023-12-28T15:51:58;7.70;99.90
78289;DHT22;67539;48.752;12.922;2023-12-28T15:54:27;7.60;99.90